sensor_id;sensor_type;location;lat;lon;timestamp;P1;durP1;ratioP1;P2;durP2;ratioP2
68854;SDS011;69984;-43.570;172.580;2023-06-04T00:02:06;0.88;;;0.50;;
68854;SDS011;69984;-43.570;172.580;2023-06-04T00:04:33;0.35;;;0.30;;
68854;SDS011;69984;-43.570;172.580;2023-06-04T00:07:00;0.75;;;0.50;;
68854;SDS011;69984;-43.570;172.580;2023-06-04T00:09:27;0.60;;;0.50;;
68854;SDS011;69984;-43.570;172.580;2023-06-04T00:11:54;0.80;;;0.60;;
68854;SDS011;69984;-43.570;172.580;2023-06-04T00:14:21;4.15;;;0.85;;
68854;SDS011;69984;-43.570;172.580;2023-06-04T00:16:49;1.30;;;0.60;;
68854;SDS011;69984;-43.570;172.580;2023-06-04T00:19:16;2.35;;;0.57;;
68854;SDS011;69984;-43.570;172.580;2023-06-04T00:21:43;1.40;;;0.77;;
68854;SDS011;69984;-43.570;172.580;2023-06-04T00:24:11;1.13;;;0.50;;
68854;SDS011;69984;-43.570;172.580;2023-06-04T00:26:40;1.05;;;0.63;;
68854;SDS011;69984;-43.570;172.580;2023-06-04T00:29:08;2.03;;;0.60;;
68854;SDS011;69984;-43.570;172.580;2023-06-04T00:31:35;1.00;;;0.50;;
68854;SDS011;69984;-43.570;172.580;2023-06-04T00:34:03;2.17;;;0.30;;
68854;SDS011;69984;-43.570;172.580;2023-06-04T00:36:30;2.53;;;0.30;;
68854;SDS011;69984;-43.570;172.580;2023-06-04T00:38:57;1.65;;;0.20;;
68854;SDS011;69984;-43.570;172.580;2023-06-04T00:41:25;1.95;;;0.60;;
68854;SDS011;69984;-43.570;172.580;2023-06-04T00:43:52;1.88;;;0.52;;
68854;SDS011;69984;-43.570;172.580;2023-06-04T00:46:25;0.70;;;0.40;;
68854;SDS011;69984;-43.570;172.580;2023-06-04T00:48:54;1.75;;;0.50;;
68854;SDS011;69984;-43.570;172.580;2023-06-04T00:51:21;0.77;;;0.45;;
68854;SDS011;69984;-43.570;172.580;2023-06-04T00:53:49;0.40;;;0.40;;
68854;SDS011;69984;-43.570;172.580;2023-06-04T00:56:17;1.13;;;0.57;;
68854;SDS011;69984;-43.570;172.580;2023-06-04T00:58:45;0.63;;;0.50;;
68854;SDS011;69984;-43.570;172.580;2023-06-04T01:01:26;0.50;;;0.40;;
68854;SDS011;69984;-43.570;172.580;2023-06-04T01:03:54;4.55;;;0.55;;
68854;SDS011;69984;-43.570;172.580;2023-06-04T01:06:39;0.82;;;0.50;;
68854;SDS011;69984;-43.570;172.580;2023-06-04T01:09:11;0.95;;;0.60;;
68854;SDS011;69984;-43.570;172.580;2023-06-04T01:11:40;0.82;;;0.68;;
68854;SDS011;69984;-43.570;172.580;2023-06-04T01:14:08;1.10;;;0.60;;
68854;SDS011;69984;-43.570;172.580;2023-06-04T01:25:27;0.75;;;0.65;;
68854;SDS011;69984;-43.570;172.580;2023-06-04T01:28:06;0.70;;;0.50;;
68854;SDS011;69984;-43.570;172.580;2023-06-04T01:30:37;0.73;;;0.50;;
68854;SDS011;69984;-43.570;172.580;2023-06-04T01:33:08;1.10;;;0.50;;
68854;SDS011;69984;-43.570;172.580;2023-06-04T01:35:36;1.73;;;0.57;;
68854;SDS011;69984;-43.570;172.580;2023-06-04T01:38:04;1.17;;;0.60;;
68854;SDS011;69984;-43.570;172.580;2023-06-04T01:40:31;2.15;;;0.70;;
68854;SDS011;69984;-43.570;172.580;2023-06-04T01:42:58;2.53;;;0.60;;
68854;SDS011;69984;-43.570;172.580;2023-06-04T01:45:26;0.57;;;0.30;;
68854;SDS011;69984;-43.570;172.580;2023-06-04T01:47:54;1.67;;;0.88;;
68854;SDS011;69984;-43.570;172.580;2023-06-04T01:50:22;0.75;;;0.50;;
68854;SDS011;69984;-43.570;172.580;2023-06-04T01:52:49;0.75;;;0.60;;
68854;SDS011;69984;-43.570;172.580;2023-06-04T01:55:16;0.93;;;0.60;;
68854;SDS011;69984;-43.570;172.580;2023-06-04T01:57:44;1.98;;;0.60;;
68854;SDS011;69984;-43.570;172.580;2023-06-04T02:00:16;3.97;;;0.88;;
68854;SDS011;69984;-43.570;172.580;2023-06-04T02:02:44;0.47;;;0.30;;
68854;SDS011;69984;-43.570;172.580;2023-06-04T02:05:13;0.75;;;0.55;;
68854;SDS011;69984;-43.570;172.580;2023-06-04T02:07:42;0.63;;;0.55;;
68854;SDS011;69984;-43.570;172.580;2023-06-04T02:10:11;1.25;;;0.47;;
68854;SDS011;69984;-43.570;172.580;2023-06-04T02:12:39;1.13;;;0.60;;
68854;SDS011;69984;-43.570;172.580;2023-06-04T02:15:18;0.70;;;0.50;;
68854;SDS011;69984;-43.570;172.580;2023-06-04T02:17:45;2.92;;;2.03;;
68854;SDS011;69984;-43.570;172.580;2023-06-04T02:20:13;1.92;;;1.30;;
68854;SDS011;69984;-43.570;172.580;2023-06-04T02:22:40;2.65;;;1.55;;
68854;SDS011;69984;-43.570;172.580;2023-06-04T02:25:07;1.63;;;1.17;;
68854;SDS011;69984;-43.570;172.580;2023-06-04T02:27:35;4.00;;;0.90;;
68854;SDS011;69984;-43.570;172.580;2023-06-04T02:30:02;8.30;;;1.70;;
68854;SDS011;69984;-43.570;172.580;2023-06-04T02:32:31;4.45;;;1.40;;
68854;SDS011;69984;-43.570;172.580;2023-06-04T02:34:59;1.77;;;1.50;;
68854;SDS011;69984;-43.570;172.580;2023-06-04T02:37:26;7.10;;;3.65;;
68854;SDS011;69984;-43.570;172.580;2023-06-04T02:39:53;3.47;;;2.95;;
68854;SDS011;69984;-43.570;172.580;2023-06-04T02:42:20;5.22;;;3.33;;
68854;SDS011;69984;-43.570;172.580;2023-06-04T02:44:47;3.10;;;2.55;;
68854;SDS011;69984;-43.570;172.580;2023-06-04T02:47:14;6.40;;;3.33;;
68854;SDS011;69984;-43.570;172.580;2023-06-04T02:49:41;4.18;;;2.42;;
68854;SDS011;69984;-43.570;172.580;2023-06-04T02:52:08;6.28;;;2.03;;
68854;SDS011;69984;-43.570;172.580;2023-06-04T02:54:35;5.22;;;2.08;;
68854;SDS011;69984;-43.570;172.580;2023-06-04T02:57:02;3.75;;;1.77;;
68854;SDS011;69984;-43.570;172.580;2023-06-04T02:59:30;5.88;;;1.67;;
68854;SDS011;69984;-43.570;172.580;2023-06-04T03:01:57;3.10;;;1.50;;
68854;SDS011;69984;-43.570;172.580;2023-06-04T03:04:24;1.80;;;1.48;;
68854;SDS011;69984;-43.570;172.580;2023-06-04T03:06:51;2.55;;;0.82;;
68854;SDS011;69984;-43.570;172.580;2023-06-04T03:09:23;3.15;;;1.17;;
68854;SDS011;69984;-43.570;172.580;2023-06-04T03:11:50;5.90;;;1.27;;
68854;SDS011;69984;-43.570;172.580;2023-06-04T03:14:17;2.03;;;1.38;;
68854;SDS011;69984;-43.570;172.580;2023-06-04T03:16:44;6.30;;;2.03;;
68854;SDS011;69984;-43.570;172.580;2023-06-04T03:19:11;4.70;;;2.50;;
68854;SDS011;69984;-43.570;172.580;2023-06-04T03:21:38;10.82;;;3.30;;
68854;SDS011;69984;-43.570;172.580;2023-06-04T03:24:06;7.57;;;3.13;;
68854;SDS011;69984;-43.570;172.580;2023-06-04T03:26:33;4.28;;;2.65;;
68854;SDS011;69984;-43.570;172.580;2023-06-04T03:29:00;11.57;;;2.40;;
68854;SDS011;69984;-43.570;172.580;2023-06-04T03:31:27;6.10;;;2.25;;
68854;SDS011;69984;-43.570;172.580;2023-06-04T03:33:54;7.97;;;3.08;;
68854;SDS011;69984;-43.570;172.580;2023-06-04T03:36:21;17.40;;;2.60;;
68854;SDS011;69984;-43.570;172.580;2023-06-04T03:38:57;7.80;;;2.40;;
68854;SDS011;69984;-43.570;172.580;2023-06-04T03:41:24;2.80;;;1.95;;
68854;SDS011;69984;-43.570;172.580;2023-06-04T03:43:51;4.72;;;2.60;;
68854;SDS011;69984;-43.570;172.580;2023-06-04T03:46:18;5.80;;;2.00;;
68854;SDS011;69984;-43.570;172.580;2023-06-04T03:48:45;11.85;;;2.40;;
68854;SDS011;69984;-43.570;172.580;2023-06-04T03:51:12;7.32;;;3.15;;
68854;SDS011;69984;-43.570;172.580;2023-06-04T03:53:39;5.32;;;2.65;;
68854;SDS011;69984;-43.570;172.580;2023-06-04T03:56:08;5.85;;;2.83;;
68854;SDS011;69984;-43.570;172.580;2023-06-04T03:58:35;5.57;;;2.75;;
68854;SDS011;69984;-43.570;172.580;2023-06-04T04:01:02;3.72;;;1.90;;
68854;SDS011;69984;-43.570;172.580;2023-06-04T04:03:30;13.70;;;3.92;;
68854;SDS011;69984;-43.570;172.580;2023-06-04T04:05:57;5.07;;;2.45;;
68854;SDS011;69984;-43.570;172.580;2023-06-04T04:08:24;5.60;;;2.72;;
68854;SDS011;69984;-43.570;172.580;2023-06-04T04:10:57;4.68;;;2.95;;
68854;SDS011;69984;-43.570;172.580;2023-06-04T04:13:24;11.23;;;3.13;;
68854;SDS011;69984;-43.570;172.580;2023-06-04T04:15:51;12.10;;;3.58;;
68854;SDS011;69984;-43.570;172.580;2023-06-04T04:18:19;11.30;;;3.05;;
68854;SDS011;69984;-43.570;172.580;2023-06-04T04:20:47;8.25;;;3.22;;
68854;SDS011;69984;-43.570;172.580;2023-06-04T04:23:14;11.45;;;3.92;;
68854;SDS011;69984;-43.570;172.580;2023-06-04T04:25:42;7.85;;;3.92;;
68854;SDS011;69984;-43.570;172.580;2023-06-04T04:28:10;8.35;;;3.80;;
68854;SDS011;69984;-43.570;172.580;2023-06-04T04:30:37;14.93;;;4.78;;
68854;SDS011;69984;-43.570;172.580;2023-06-04T04:33:06;12.30;;;4.22;;
68854;SDS011;69984;-43.570;172.580;2023-06-04T04:35:33;13.05;;;4.07;;
68854;SDS011;69984;-43.570;172.580;2023-06-04T04:38:00;15.45;;;3.55;;
68854;SDS011;69984;-43.570;172.580;2023-06-04T04:40:31;9.77;;;4.38;;
68854;SDS011;69984;-43.570;172.580;2023-06-04T04:42:58;14.10;;;4.20;;
68854;SDS011;69984;-43.570;172.580;2023-06-04T04:45:25;19.17;;;5.00;;
68854;SDS011;69984;-43.570;172.580;2023-06-04T04:47:52;19.70;;;4.13;;
68854;SDS011;69984;-43.570;172.580;2023-06-04T04:50:19;16.70;;;4.07;;
68854;SDS011;69984;-43.570;172.580;2023-06-04T04:52:46;35.45;;;4.50;;
68854;SDS011;69984;-43.570;172.580;2023-06-04T04:55:13;45.22;;;4.35;;
68854;SDS011;69984;-43.570;172.580;2023-06-04T04:57:40;29.50;;;3.88;;
68854;SDS011;69984;-43.570;172.580;2023-06-04T05:00:07;21.23;;;4.22;;
68854;SDS011;69984;-43.570;172.580;2023-06-04T05:02:35;18.25;;;3.45;;
68854;SDS011;69984;-43.570;172.580;2023-06-04T05:05:03;22.17;;;2.83;;
68854;SDS011;69984;-43.570;172.580;2023-06-04T05:07:30;27.20;;;2.15;;
68854;SDS011;69984;-43.570;172.580;2023-06-04T05:09:57;17.35;;;2.10;;
68854;SDS011;69984;-43.570;172.580;2023-06-04T05:12:29;19.90;;;2.67;;
68854;SDS011;69984;-43.570;172.580;2023-06-04T05:14:57;32.25;;;3.55;;
68854;SDS011;69984;-43.570;172.580;2023-06-04T05:17:24;18.48;;;2.58;;
68854;SDS011;69984;-43.570;172.580;2023-06-04T05:19:58;20.98;;;2.30;;
68854;SDS011;69984;-43.570;172.580;2023-06-04T05:22:37;32.08;;;4.13;;
68854;SDS011;69984;-43.570;172.580;2023-06-04T05:25:04;26.38;;;2.42;;
68854;SDS011;69984;-43.570;172.580;2023-06-04T05:27:32;16.60;;;2.05;;
68854;SDS011;69984;-43.570;172.580;2023-06-04T05:29:59;31.23;;;3.58;;
68854;SDS011;69984;-43.570;172.580;2023-06-04T05:32:29;23.52;;;3.42;;
68854;SDS011;69984;-43.570;172.580;2023-06-04T05:34:57;17.20;;;2.17;;
68854;SDS011;69984;-43.570;172.580;2023-06-04T05:37:25;23.42;;;2.47;;
68854;SDS011;69984;-43.570;172.580;2023-06-04T05:39:55;25.60;;;2.45;;
68854;SDS011;69984;-43.570;172.580;2023-06-04T05:42:22;26.33;;;2.05;;
68854;SDS011;69984;-43.570;172.580;2023-06-04T05:44:50;13.18;;;2.13;;
68854;SDS011;69984;-43.570;172.580;2023-06-04T05:47:17;19.55;;;1.90;;
68854;SDS011;69984;-43.570;172.580;2023-06-04T05:49:44;13.88;;;1.88;;
68854;SDS011;69984;-43.570;172.580;2023-06-04T05:52:11;11.68;;;1.55;;
68854;SDS011;69984;-43.570;172.580;2023-06-04T05:54:38;22.58;;;2.60;;
68854;SDS011;69984;-43.570;172.580;2023-06-04T05:57:05;19.55;;;1.90;;
68854;SDS011;69984;-43.570;172.580;2023-06-04T05:59:32;19.42;;;2.42;;
68854;SDS011;69984;-43.570;172.580;2023-06-04T06:01:59;8.73;;;1.23;;
68854;SDS011;69984;-43.570;172.580;2023-06-04T06:04:26;12.98;;;1.30;;
68854;SDS011;69984;-43.570;172.580;2023-06-04T06:06:53;18.23;;;2.17;;
68854;SDS011;69984;-43.570;172.580;2023-06-04T06:09:21;14.85;;;1.85;;
68854;SDS011;69984;-43.570;172.580;2023-06-04T06:11:48;13.70;;;1.92;;
68854;SDS011;69984;-43.570;172.580;2023-06-04T06:14:15;14.63;;;2.25;;
68854;SDS011;69984;-43.570;172.580;2023-06-04T06:16:42;18.35;;;1.75;;
68854;SDS011;69984;-43.570;172.580;2023-06-04T06:19:09;19.95;;;1.63;;
68854;SDS011;69984;-43.570;172.580;2023-06-04T06:21:36;22.85;;;2.45;;
68854;SDS011;69984;-43.570;172.580;2023-06-04T06:24:03;15.93;;;1.27;;
68854;SDS011;69984;-43.570;172.580;2023-06-04T06:26:31;15.57;;;2.15;;
68854;SDS011;69984;-43.570;172.580;2023-06-04T06:28:58;13.40;;;1.85;;
68854;SDS011;69984;-43.570;172.580;2023-06-04T06:31:25;18.45;;;1.90;;
68854;SDS011;69984;-43.570;172.580;2023-06-04T06:33:52;15.30;;;1.70;;
68854;SDS011;69984;-43.570;172.580;2023-06-04T06:36:19;19.83;;;2.10;;
68854;SDS011;69984;-43.570;172.580;2023-06-04T06:38:46;11.02;;;1.60;;
68854;SDS011;69984;-43.570;172.580;2023-06-04T06:41:13;13.05;;;1.48;;
68854;SDS011;69984;-43.570;172.580;2023-06-04T06:43:40;9.65;;;1.10;;
68854;SDS011;69984;-43.570;172.580;2023-06-04T06:46:07;12.60;;;1.70;;
68854;SDS011;69984;-43.570;172.580;2023-06-04T06:48:34;7.28;;;1.35;;
68854;SDS011;69984;-43.570;172.580;2023-06-04T06:51:01;11.55;;;1.52;;
68854;SDS011;69984;-43.570;172.580;2023-06-04T06:53:28;19.52;;;2.35;;
68854;SDS011;69984;-43.570;172.580;2023-06-04T06:55:55;11.70;;;1.85;;
68854;SDS011;69984;-43.570;172.580;2023-06-04T06:58:22;6.10;;;1.35;;
68854;SDS011;69984;-43.570;172.580;2023-06-04T07:00:49;15.88;;;2.53;;
68854;SDS011;69984;-43.570;172.580;2023-06-04T07:03:17;21.13;;;1.92;;
68854;SDS011;69984;-43.570;172.580;2023-06-04T07:05:44;16.13;;;1.20;;
68854;SDS011;69984;-43.570;172.580;2023-06-04T07:08:10;15.52;;;1.63;;
68854;SDS011;69984;-43.570;172.580;2023-06-04T07:10:37;12.98;;;1.77;;
68854;SDS011;69984;-43.570;172.580;2023-06-04T07:13:04;11.55;;;1.42;;
68854;SDS011;69984;-43.570;172.580;2023-06-04T07:15:31;3.00;;;0.85;;
68854;SDS011;69984;-43.570;172.580;2023-06-04T07:17:58;9.65;;;0.88;;
68854;SDS011;69984;-43.570;172.580;2023-06-04T07:20:25;8.95;;;0.75;;
68854;SDS011;69984;-43.570;172.580;2023-06-04T07:22:52;11.93;;;1.30;;
68854;SDS011;69984;-43.570;172.580;2023-06-04T07:25:19;10.18;;;1.95;;
68854;SDS011;69984;-43.570;172.580;2023-06-04T07:27:49;10.13;;;1.55;;
68854;SDS011;69984;-43.570;172.580;2023-06-04T07:30:16;11.77;;;1.35;;
68854;SDS011;69984;-43.570;172.580;2023-06-04T07:32:47;9.00;;;1.33;;
68854;SDS011;69984;-43.570;172.580;2023-06-04T07:35:14;11.50;;;1.35;;
68854;SDS011;69984;-43.570;172.580;2023-06-04T07:37:41;10.73;;;1.15;;
68854;SDS011;69984;-43.570;172.580;2023-06-04T07:40:13;11.13;;;1.20;;
68854;SDS011;69984;-43.570;172.580;2023-06-04T07:42:40;9.40;;;1.20;;
68854;SDS011;69984;-43.570;172.580;2023-06-04T07:45:08;8.32;;;2.13;;
68854;SDS011;69984;-43.570;172.580;2023-06-04T07:47:36;7.10;;;1.30;;
68854;SDS011;69984;-43.570;172.580;2023-06-04T07:50:03;10.48;;;0.82;;
68854;SDS011;69984;-43.570;172.580;2023-06-04T07:52:31;15.10;;;1.63;;
68854;SDS011;69984;-43.570;172.580;2023-06-04T07:54:59;6.80;;;1.40;;
68854;SDS011;69984;-43.570;172.580;2023-06-04T07:57:26;11.60;;;1.65;;
68854;SDS011;69984;-43.570;172.580;2023-06-04T07:59:53;14.75;;;1.52;;
68854;SDS011;69984;-43.570;172.580;2023-06-04T08:02:22;13.52;;;1.65;;
68854;SDS011;69984;-43.570;172.580;2023-06-04T08:04:49;6.47;;;0.55;;
68854;SDS011;69984;-43.570;172.580;2023-06-04T08:07:16;8.35;;;1.30;;
68854;SDS011;69984;-43.570;172.580;2023-06-04T08:09:43;11.60;;;1.95;;
68854;SDS011;69984;-43.570;172.580;2023-06-04T08:12:11;12.75;;;1.73;;
68854;SDS011;69984;-43.570;172.580;2023-06-04T08:14:38;6.20;;;1.00;;
68854;SDS011;69984;-43.570;172.580;2023-06-04T08:17:05;7.20;;;1.27;;
68854;SDS011;69984;-43.570;172.580;2023-06-04T08:19:32;6.25;;;0.70;;
68854;SDS011;69984;-43.570;172.580;2023-06-04T08:21:58;4.53;;;0.75;;
68854;SDS011;69984;-43.570;172.580;2023-06-04T08:24:26;19.38;;;2.85;;
68854;SDS011;69984;-43.570;172.580;2023-06-04T08:26:53;12.02;;;1.65;;
68854;SDS011;69984;-43.570;172.580;2023-06-04T08:29:20;11.68;;;1.08;;
68854;SDS011;69984;-43.570;172.580;2023-06-04T08:31:47;17.15;;;2.40;;
68854;SDS011;69984;-43.570;172.580;2023-06-04T08:34:14;9.40;;;1.30;;
68854;SDS011;69984;-43.570;172.580;2023-06-04T08:36:41;7.85;;;1.08;;
68854;SDS011;69984;-43.570;172.580;2023-06-04T08:39:08;11.07;;;1.35;;
68854;SDS011;69984;-43.570;172.580;2023-06-04T08:41:54;8.82;;;0.90;;
68854;SDS011;69984;-43.570;172.580;2023-06-04T08:44:29;11.07;;;1.52;;
68854;SDS011;69984;-43.570;172.580;2023-06-04T08:47:01;4.97;;;1.05;;
68854;SDS011;69984;-43.570;172.580;2023-06-04T08:49:33;7.13;;;0.85;;
68854;SDS011;69984;-43.570;172.580;2023-06-04T08:52:07;10.90;;;1.50;;
68854;SDS011;69984;-43.570;172.580;2023-06-04T08:54:34;10.30;;;1.10;;
68854;SDS011;69984;-43.570;172.580;2023-06-04T08:57:01;11.95;;;1.10;;
68854;SDS011;69984;-43.570;172.580;2023-06-04T08:59:29;12.20;;;1.52;;
68854;SDS011;69984;-43.570;172.580;2023-06-04T09:01:56;8.85;;;1.15;;
68854;SDS011;69984;-43.570;172.580;2023-06-04T09:04:24;6.82;;;1.15;;
68854;SDS011;69984;-43.570;172.580;2023-06-04T09:06:52;15.40;;;1.75;;
68854;SDS011;69984;-43.570;172.580;2023-06-04T09:09:20;6.47;;;1.42;;
68854;SDS011;69984;-43.570;172.580;2023-06-04T09:11:53;19.75;;;2.45;;
68854;SDS011;69984;-43.570;172.580;2023-06-04T09:14:23;10.98;;;1.23;;
68854;SDS011;69984;-43.570;172.580;2023-06-04T09:16:50;12.82;;;1.10;;
68854;SDS011;69984;-43.570;172.580;2023-06-04T09:19:22;17.17;;;1.15;;
68854;SDS011;69984;-43.570;172.580;2023-06-04T09:21:50;11.23;;;1.30;;
68854;SDS011;69984;-43.570;172.580;2023-06-04T09:24:21;11.63;;;1.55;;
68854;SDS011;69984;-43.570;172.580;2023-06-04T09:26:50;23.23;;;2.17;;
68854;SDS011;69984;-43.570;172.580;2023-06-04T09:29:17;17.73;;;1.63;;
68854;SDS011;69984;-43.570;172.580;2023-06-04T09:31:57;17.00;;;2.15;;
68854;SDS011;69984;-43.570;172.580;2023-06-04T09:34:28;15.82;;;1.83;;
68854;SDS011;69984;-43.570;172.580;2023-06-04T09:36:55;13.07;;;1.77;;
68854;SDS011;69984;-43.570;172.580;2023-06-04T09:39:23;8.77;;;1.77;;
68854;SDS011;69984;-43.570;172.580;2023-06-04T09:41:59;16.20;;;2.03;;
68854;SDS011;69984;-43.570;172.580;2023-06-04T09:44:31;16.90;;;1.73;;
68854;SDS011;69984;-43.570;172.580;2023-06-04T09:47:08;7.95;;;1.45;;
68854;SDS011;69984;-43.570;172.580;2023-06-04T09:49:41;20.75;;;1.70;;
68854;SDS011;69984;-43.570;172.580;2023-06-04T09:52:10;15.65;;;1.58;;
68854;SDS011;69984;-43.570;172.580;2023-06-04T09:54:38;15.68;;;1.40;;
68854;SDS011;69984;-43.570;172.580;2023-06-04T09:57:16;20.88;;;2.35;;
68854;SDS011;69984;-43.570;172.580;2023-06-04T09:59:45;12.50;;;1.63;;
68854;SDS011;69984;-43.570;172.580;2023-06-04T10:02:21;12.98;;;1.75;;
68854;SDS011;69984;-43.570;172.580;2023-06-04T10:04:53;19.92;;;1.65;;
68854;SDS011;69984;-43.570;172.580;2023-06-04T10:07:24;8.32;;;1.48;;
68854;SDS011;69984;-43.570;172.580;2023-06-04T10:09:52;16.92;;;2.05;;
68854;SDS011;69984;-43.570;172.580;2023-06-04T10:12:29;7.25;;;1.00;;
68854;SDS011;69984;-43.570;172.580;2023-06-04T10:15:02;17.50;;;1.80;;
68854;SDS011;69984;-43.570;172.580;2023-06-04T10:17:33;8.02;;;1.30;;
68854;SDS011;69984;-43.570;172.580;2023-06-04T10:20:03;20.10;;;1.60;;
68854;SDS011;69984;-43.570;172.580;2023-06-04T10:22:31;10.88;;;1.42;;
68854;SDS011;69984;-43.570;172.580;2023-06-04T10:24:59;14.07;;;1.13;;
68854;SDS011;69984;-43.570;172.580;2023-06-04T10:27:29;9.95;;;2.25;;
68854;SDS011;69984;-43.570;172.580;2023-06-04T10:29:57;5.88;;;1.05;;
68854;SDS011;69984;-43.570;172.580;2023-06-04T10:32:28;2.35;;;0.38;;
68854;SDS011;69984;-43.570;172.580;2023-06-04T10:34:56;14.82;;;1.33;;
68854;SDS011;69984;-43.570;172.580;2023-06-04T10:37:27;11.77;;;1.67;;
68854;SDS011;69984;-43.570;172.580;2023-06-04T10:39:55;17.95;;;1.08;;
68854;SDS011;69984;-43.570;172.580;2023-06-04T10:42:23;7.13;;;1.00;;
68854;SDS011;69984;-43.570;172.580;2023-06-04T10:44:52;9.32;;;1.63;;
68854;SDS011;69984;-43.570;172.580;2023-06-04T10:47:24;11.20;;;2.22;;
68854;SDS011;69984;-43.570;172.580;2023-06-04T10:49:52;7.80;;;1.13;;
68854;SDS011;69984;-43.570;172.580;2023-06-04T10:52:21;9.75;;;0.82;;
68854;SDS011;69984;-43.570;172.580;2023-06-04T10:54:48;7.88;;;1.17;;
68854;SDS011;69984;-43.570;172.580;2023-06-04T10:57:18;12.35;;;1.83;;
68854;SDS011;69984;-43.570;172.580;2023-06-04T10:59:59;18.45;;;1.73;;
68854;SDS011;69984;-43.570;172.580;2023-06-04T11:02:31;16.23;;;2.60;;
68854;SDS011;69984;-43.570;172.580;2023-06-04T11:05:02;13.15;;;1.27;;
68854;SDS011;69984;-43.570;172.580;2023-06-04T11:07:43;7.00;;;1.13;;
68854;SDS011;69984;-43.570;172.580;2023-06-04T11:10:14;6.05;;;1.30;;
68854;SDS011;69984;-43.570;172.580;2023-06-04T11:12:46;9.18;;;1.05;;
68854;SDS011;69984;-43.570;172.580;2023-06-04T11:15:18;12.95;;;1.35;;
68854;SDS011;69984;-43.570;172.580;2023-06-04T11:17:51;9.95;;;1.63;;
68854;SDS011;69984;-43.570;172.580;2023-06-04T11:20:21;14.02;;;1.88;;
68854;SDS011;69984;-43.570;172.580;2023-06-04T11:22:55;11.70;;;1.73;;
68854;SDS011;69984;-43.570;172.580;2023-06-04T11:25:28;12.55;;;1.60;;
68854;SDS011;69984;-43.570;172.580;2023-06-04T11:27:59;5.78;;;0.77;;
68854;SDS011;69984;-43.570;172.580;2023-06-04T11:30:27;13.80;;;2.38;;
68854;SDS011;69984;-43.570;172.580;2023-06-04T11:33:01;15.75;;;2.15;;
68854;SDS011;69984;-43.570;172.580;2023-06-04T11:35:29;14.05;;;1.67;;
68854;SDS011;69984;-43.570;172.580;2023-06-04T11:37:57;10.38;;;1.65;;
68854;SDS011;69984;-43.570;172.580;2023-06-04T11:40:25;12.43;;;1.90;;
68854;SDS011;69984;-43.570;172.580;2023-06-04T11:42:52;11.32;;;1.52;;
68854;SDS011;69984;-43.570;172.580;2023-06-04T11:45:20;11.70;;;1.30;;
68854;SDS011;69984;-43.570;172.580;2023-06-04T11:47:54;10.43;;;1.25;;
68854;SDS011;69984;-43.570;172.580;2023-06-04T11:50:23;14.95;;;1.90;;
68854;SDS011;69984;-43.570;172.580;2023-06-04T11:52:54;6.53;;;1.23;;
68854;SDS011;69984;-43.570;172.580;2023-06-04T11:55:21;25.50;;;2.03;;
68854;SDS011;69984;-43.570;172.580;2023-06-04T11:57:50;13.63;;;1.90;;
68854;SDS011;69984;-43.570;172.580;2023-06-04T12:00:18;26.55;;;1.63;;
68854;SDS011;69984;-43.570;172.580;2023-06-04T12:02:51;11.45;;;1.60;;
68854;SDS011;69984;-43.570;172.580;2023-06-04T12:05:20;15.57;;;1.58;;
68854;SDS011;69984;-43.570;172.580;2023-06-04T12:10:17;13.00;;;1.40;;
68854;SDS011;69984;-43.570;172.580;2023-06-04T12:12:45;16.77;;;1.63;;
68854;SDS011;69984;-43.570;172.580;2023-06-04T12:15:18;14.27;;;1.40;;
68854;SDS011;69984;-43.570;172.580;2023-06-04T12:17:52;22.05;;;2.20;;
68854;SDS011;69984;-43.570;172.580;2023-06-04T12:20:31;10.55;;;1.50;;
68854;SDS011;69984;-43.570;172.580;2023-06-04T12:23:03;15.40;;;2.22;;
68854;SDS011;69984;-43.570;172.580;2023-06-04T12:25:31;14.30;;;2.40;;
68854;SDS011;69984;-43.570;172.580;2023-06-04T12:27:59;7.32;;;1.40;;
68854;SDS011;69984;-43.570;172.580;2023-06-04T12:30:34;11.20;;;1.35;;
68854;SDS011;69984;-43.570;172.580;2023-06-04T12:33:05;7.60;;;1.50;;
68854;SDS011;69984;-43.570;172.580;2023-06-04T12:35:34;12.27;;;1.95;;
68854;SDS011;69984;-43.570;172.580;2023-06-04T12:38:04;7.07;;;1.48;;
68854;SDS011;69984;-43.570;172.580;2023-06-04T12:40:34;7.38;;;1.25;;
68854;SDS011;69984;-43.570;172.580;2023-06-04T12:43:01;13.32;;;1.73;;
68854;SDS011;69984;-43.570;172.580;2023-06-04T12:45:28;7.78;;;1.02;;
68854;SDS011;69984;-43.570;172.580;2023-06-04T12:47:55;7.05;;;1.25;;
68854;SDS011;69984;-43.570;172.580;2023-06-04T12:50:22;18.23;;;1.67;;
68854;SDS011;69984;-43.570;172.580;2023-06-04T12:52:49;26.17;;;1.85;;
68854;SDS011;69984;-43.570;172.580;2023-06-04T12:55:16;24.35;;;2.35;;
68854;SDS011;69984;-43.570;172.580;2023-06-04T12:57:43;5.18;;;0.88;;
68854;SDS011;69984;-43.570;172.580;2023-06-04T13:00:11;16.63;;;1.85;;
68854;SDS011;69984;-43.570;172.580;2023-06-04T13:02:40;15.63;;;2.17;;
68854;SDS011;69984;-43.570;172.580;2023-06-04T13:05:07;13.32;;;1.83;;
68854;SDS011;69984;-43.570;172.580;2023-06-04T13:07:34;14.05;;;2.28;;
68854;SDS011;69984;-43.570;172.580;2023-06-04T13:10:01;9.75;;;1.50;;
68854;SDS011;69984;-43.570;172.580;2023-06-04T13:12:28;10.73;;;1.33;;
68854;SDS011;69984;-43.570;172.580;2023-06-04T13:14:55;12.52;;;1.60;;
68854;SDS011;69984;-43.570;172.580;2023-06-04T13:17:22;13.23;;;1.33;;
68854;SDS011;69984;-43.570;172.580;2023-06-04T13:19:50;17.63;;;1.70;;
68854;SDS011;69984;-43.570;172.580;2023-06-04T13:22:18;12.60;;;1.70;;
68854;SDS011;69984;-43.570;172.580;2023-06-04T13:24:45;13.02;;;1.17;;
68854;SDS011;69984;-43.570;172.580;2023-06-04T13:27:12;10.50;;;2.03;;
68854;SDS011;69984;-43.570;172.580;2023-06-04T13:29:39;10.15;;;1.58;;
68854;SDS011;69984;-43.570;172.580;2023-06-04T13:32:06;9.48;;;1.40;;
68854;SDS011;69984;-43.570;172.580;2023-06-04T13:34:33;7.50;;;1.25;;
68854;SDS011;69984;-43.570;172.580;2023-06-04T13:36:59;16.67;;;2.72;;
68854;SDS011;69984;-43.570;172.580;2023-06-04T13:39:26;5.75;;;1.55;;
68854;SDS011;69984;-43.570;172.580;2023-06-04T13:41:53;8.20;;;1.10;;
68854;SDS011;69984;-43.570;172.580;2023-06-04T13:44:21;4.82;;;0.75;;
68854;SDS011;69984;-43.570;172.580;2023-06-04T13:46:52;14.02;;;1.52;;
68854;SDS011;69984;-43.570;172.580;2023-06-04T13:49:19;13.60;;;1.30;;
68854;SDS011;69984;-43.570;172.580;2023-06-04T13:51:46;9.38;;;1.23;;
68854;SDS011;69984;-43.570;172.580;2023-06-04T13:54:13;5.82;;;1.33;;
68854;SDS011;69984;-43.570;172.580;2023-06-04T13:56:41;14.38;;;1.23;;
68854;SDS011;69984;-43.570;172.580;2023-06-04T13:59:10;11.15;;;1.45;;
68854;SDS011;69984;-43.570;172.580;2023-06-04T14:01:37;8.68;;;0.93;;
68854;SDS011;69984;-43.570;172.580;2023-06-04T14:04:04;8.55;;;0.90;;
68854;SDS011;69984;-43.570;172.580;2023-06-04T14:06:32;11.82;;;1.20;;
68854;SDS011;69984;-43.570;172.580;2023-06-04T14:09:01;12.80;;;1.33;;
68854;SDS011;69984;-43.570;172.580;2023-06-04T14:11:28;9.40;;;1.17;;
68854;SDS011;69984;-43.570;172.580;2023-06-04T14:13:55;15.27;;;0.82;;
68854;SDS011;69984;-43.570;172.580;2023-06-04T14:16:22;18.98;;;1.48;;
68854;SDS011;69984;-43.570;172.580;2023-06-04T14:18:49;5.88;;;0.73;;
68854;SDS011;69984;-43.570;172.580;2023-06-04T14:21:16;10.45;;;1.02;;